createdAt,value
2022-11-08T00:01:11.634Z,99728.59
2022-11-08T00:03:39.665Z,99714.63
2022-11-08T00:06:29.584Z,99708.31
2022-11-08T00:09:15.092Z,99689.00
2022-11-08T00:12:01.760Z,99725.03
2022-11-08T00:14:30.260Z,99733.66
2022-11-08T00:16:58.110Z,99690.38
2022-11-08T00:19:29.151Z,99736.25
2022-11-08T00:21:59.718Z,99745.81
2022-11-08T00:24:27.800Z,99725.75
2022-11-08T00:26:57.018Z,99745.75
2022-11-08T00:29:29.675Z,99757.03
2022-11-08T00:31:57.692Z,99752.63
2022-11-08T00:34:31.913Z,99683.06
2022-11-08T00:37:04.675Z,99724.31
2022-11-08T00:39:38.564Z,99724.13
2022-11-08T00:42:08.396Z,99684.75
2022-11-08T00:44:36.489Z,99769.03
2022-11-08T00:47:04.620Z,99751.56
2022-11-08T00:49:33.495Z,99652.91
2022-11-08T00:52:01.874Z,99774.16
2022-11-08T00:54:30.170Z,99775.03
2022-11-08T00:57:00.836Z,99701.19
2022-11-08T00:59:30.762Z,99749.75
2022-11-08T01:01:59.091Z,99750.34
2022-11-08T01:04:27.530Z,99655.22
2022-11-08T01:06:55.493Z,99789.63
2022-11-08T01:09:23.376Z,99776.50
2022-11-08T01:11:51.224Z,99778.16
2022-11-08T01:14:19.185Z,99773.81
2022-11-08T01:16:48.422Z,99780.66
2022-11-08T01:19:16.350Z,99787.69
2022-11-08T01:21:44.421Z,99769.09
2022-11-08T01:24:12.333Z,99791.13
2022-11-08T01:26:40.336Z,99793.75
2022-11-08T01:29:08.361Z,99785.91
2022-11-08T01:31:36.205Z,99785.88
2022-11-08T01:34:05.585Z,99797.16
2022-11-08T01:36:33.575Z,99797.09
2022-11-08T01:39:01.488Z,99805.78
2022-11-08T01:41:29.370Z,99804.03
2022-11-08T01:43:58.997Z,99790.88
2022-11-08T01:46:46.500Z,99822.19
2022-11-08T01:49:44.682Z,99806.59
2022-11-08T01:52:26.876Z,99803.00
2022-11-08T01:55:01.641Z,99795.88
2022-11-08T01:57:34.638Z,99782.53
2022-11-08T02:00:08.247Z,99804.75
2022-11-08T02:02:38.184Z,99810.78
2022-11-08T02:05:24.955Z,99822.94
2022-11-08T02:08:00.466Z,99823.81
2022-11-08T02:10:35.864Z,99828.16
2022-11-08T02:13:05.459Z,99824.66
2022-11-08T02:15:34.602Z,99828.16
2022-11-08T02:18:03.290Z,99820.31
2022-11-08T02:20:33.133Z,99825.41
2022-11-08T02:23:15.573Z,99814.97
2022-11-08T02:25:44.833Z,99828.97
2022-11-08T02:28:12.776Z,99837.69
2022-11-08T02:30:40.671Z,99855.09
2022-11-08T02:33:19.557Z,99826.31
2022-11-08T02:35:50.617Z,99833.19
2022-11-08T02:38:19.165Z,99839.41
2022-11-08T02:40:49.766Z,99835.00
2022-11-08T02:43:17.898Z,99849.91
2022-11-08T02:45:46.060Z,99850.75
2022-11-08T02:48:14.353Z,99860.31
2022-11-08T02:50:42.566Z,99855.97
2022-11-08T02:53:11.151Z,99861.19
2022-11-08T02:55:39.212Z,99861.19
2022-11-08T02:58:08.484Z,99867.25
2022-11-08T03:00:36.465Z,99868.03
2022-11-08T03:03:04.713Z,99881.16
2022-11-08T03:05:33.214Z,99862.66
2022-11-08T03:08:01.313Z,99885.44
2022-11-08T03:10:29.658Z,99885.41
2022-11-08T03:12:58.063Z,99898.47
2022-11-08T03:15:27.437Z,99898.47
2022-11-08T03:17:56.678Z,99901.97
2022-11-08T03:20:29.671Z,99887.84
2022-11-08T03:23:01.161Z,99909.75
2022-11-08T03:25:29.357Z,99897.59
2022-11-08T03:27:57.435Z,99866.66
2022-11-08T03:30:25.372Z,99915.03
2022-11-08T03:32:54.835Z,99929.91
2022-11-08T03:35:22.694Z,99908.78
2022-11-08T03:37:52.138Z,99890.19
2022-11-08T03:40:20.354Z,99906.00
2022-11-08T03:42:48.587Z,99929.72
2022-11-08T03:45:17.220Z,99935.81
2022-11-08T03:47:46.542Z,99934.06
2022-11-08T03:50:17.314Z,99934.94
2022-11-08T03:52:47.513Z,99899.81
2022-11-08T03:55:16.010Z,99937.53
2022-11-08T03:57:45.944Z,99942.72
2022-11-08T04:00:16.629Z,99941.78
2022-11-08T04:02:44.574Z,99940.03
2022-11-08T04:05:13.772Z,99927.59
2022-11-08T04:07:43.562Z,99939.09
2022-11-08T04:10:12.594Z,99917.03
2022-11-08T04:12:58.935Z,99889.44
2022-11-08T04:15:27.465Z,99946.88
2022-11-08T04:18:13.561Z,99929.03
2022-11-08T04:20:59.724Z,99954.41
2022-11-08T04:23:30.038Z,99947.06
2022-11-08T04:25:59.558Z,99962.78
2022-11-08T04:28:28.514Z,99944.25
2022-11-08T04:30:57.866Z,99971.44
2022-11-08T04:33:26.480Z,99981.97
2022-11-08T04:35:54.745Z,99973.25
2022-11-08T04:38:23.169Z,99976.78
2022-11-08T04:40:52.662Z,99988.19
2022-11-08T04:43:20.588Z,99987.34
2022-11-08T04:45:48.537Z,99975.00
2022-11-08T04:48:16.728Z,99996.00
2022-11-08T04:50:45.034Z,99924.34
2022-11-08T04:53:13.122Z,100000.03
2022-11-08T04:55:40.960Z,100001.72
2022-11-08T04:58:10.225Z,100010.34
2022-11-08T05:00:38.214Z,100017.22
2022-11-08T05:03:06.046Z,100022.41
2022-11-08T05:05:34.007Z,100020.59
2022-11-08T05:08:02.075Z,100019.75
2022-11-08T05:10:30.029Z,100021.53
2022-11-08T05:12:58.801Z,99966.69
2022-11-08T05:15:28.295Z,100029.38
2022-11-08T05:17:56.178Z,100024.97
2022-11-08T05:20:41.762Z,100030.19
2022-11-08T05:23:26.703Z,100034.56
2022-11-08T05:25:56.237Z,100038.00
2022-11-08T05:28:24.303Z,100006.22
2022-11-08T05:30:57.900Z,100044.91
2022-11-08T05:33:26.067Z,100020.22
2022-11-08T05:35:54.375Z,100021.00
2022-11-08T05:38:22.884Z,100027.03
2022-11-08T05:40:50.787Z,100063.13
2022-11-08T05:43:18.928Z,100067.50
2022-11-08T05:45:47.236Z,100063.97
2022-11-08T05:48:16.832Z,100073.69
2022-11-08T05:50:45.030Z,100057.69
2022-11-08T05:53:13.289Z,100072.53
2022-11-08T05:55:41.257Z,100090.91
2022-11-08T05:58:09.392Z,100075.84
2022-11-08T06:00:37.617Z,100073.91
2022-11-08T06:03:06.808Z,100087.25
2022-11-08T06:05:36.636Z,100095.03
2022-11-08T06:08:05.062Z,100103.75
2022-11-08T06:10:33.026Z,100094.25
2022-11-08T06:13:01.802Z,100092.34
2022-11-08T06:15:29.848Z,100097.72
2022-11-08T06:17:57.817Z,100111.78
2022-11-08T06:20:25.840Z,100110.00
2022-11-08T06:22:55.576Z,100117.94
2022-11-08T06:25:23.527Z,100121.47
2022-11-08T06:27:51.710Z,100120.63
2022-11-08T06:30:20.173Z,100128.50
2022-11-08T06:32:48.096Z,100137.13
2022-11-08T06:35:16.025Z,100136.19
2022-11-08T06:37:44.436Z,100137.03
2022-11-08T06:40:14.015Z,100137.06
2022-11-08T06:42:41.858Z,100129.03
2022-11-08T06:45:10.565Z,100136.94
2022-11-08T06:47:38.434Z,100150.94
2022-11-08T06:50:07.576Z,100154.34
2022-11-08T06:52:36.125Z,100157.94
2022-11-08T06:55:04.411Z,100158.78
2022-11-08T06:57:34.858Z,100164.88
2022-11-08T07:00:02.995Z,100135.50
2022-11-08T07:02:30.999Z,100177.97
2022-11-08T07:04:58.921Z,100182.38
2022-11-08T07:07:26.993Z,100183.25
2022-11-08T07:09:58.307Z,100187.59
2022-11-08T07:12:28.850Z,100187.69
2022-11-08T07:14:58.038Z,100193.84
2022-11-08T07:17:25.925Z,100194.81
2022-11-08T07:19:53.953Z,100196.59
2022-11-08T07:22:21.823Z,100194.78
2022-11-08T07:24:49.708Z,100202.59
2022-11-08T07:27:17.838Z,100206.13
2022-11-08T07:29:45.750Z,100221.88
2022-11-08T07:32:14.981Z,100222.75
2022-11-08T07:34:43.238Z,100220.19
2022-11-08T07:37:11.080Z,100220.25
2022-11-08T07:39:38.962Z,100227.97
2022-11-08T07:42:07.073Z,100234.00
2022-11-08T07:44:34.937Z,100238.31
2022-11-08T07:47:02.796Z,100236.56
2022-11-08T07:49:32.235Z,100240.94
2022-11-08T07:52:00.136Z,100255.75
2022-11-08T07:54:27.976Z,100245.91
2022-11-08T07:56:56.104Z,100263.53
2022-11-08T07:59:23.945Z,100267.06
2022-11-08T08:01:51.824Z,100268.00
2022-11-08T08:04:20.062Z,100271.53
2022-11-08T08:06:50.035Z,100277.59
2022-11-08T08:09:17.889Z,100276.66
2022-11-08T08:11:45.945Z,100273.91
2022-11-08T08:14:13.916Z,100287.84
2022-11-08T08:16:41.787Z,100283.59
2022-11-08T08:19:09.955Z,100287.03
2022-11-08T08:21:37.980Z,100283.47
2022-11-08T08:24:07.753Z,100282.63
2022-11-08T08:26:35.848Z,100271.28
2022-11-08T08:29:03.722Z,100272.97
2022-11-08T08:31:31.620Z,100288.03
2022-11-08T08:33:59.611Z,100287.22
2022-11-08T08:36:27.541Z,100288.03
2022-11-08T08:38:55.412Z,100296.59
2022-11-08T08:41:24.931Z,100298.28
2022-11-08T08:43:52.836Z,100307.66
2022-11-08T08:46:20.771Z,100305.06
2022-11-08T08:48:49.025Z,100306.84
2022-11-08T08:51:16.939Z,100305.94
2022-11-08T08:53:44.808Z,100180.63
2022-11-08T08:56:12.910Z,100301.13
2022-11-08T08:58:42.334Z,100307.31
2022-11-08T09:03:59.249Z,100293.16
2022-11-08T09:06:27.226Z,100299.25
2022-11-08T09:08:55.102Z,100299.34
2022-11-08T09:11:23.117Z,100291.56
2022-11-08T09:13:52.348Z,100290.03
2022-11-08T09:16:20.253Z,100298.88
2022-11-08T09:18:48.358Z,100295.25
2022-11-08T09:21:16.283Z,100307.31
2022-11-08T09:23:44.206Z,100313.50
2022-11-08T09:26:12.629Z,100305.88
2022-11-08T09:28:40.532Z,100321.84
2022-11-08T09:31:12.447Z,100318.44
2022-11-08T09:33:42.004Z,100315.72
2022-11-08T09:36:13.623Z,100321.00
2022-11-08T09:38:42.054Z,100279.16
2022-11-08T09:41:28.663Z,100305.63
2022-11-08T09:44:12.210Z,100324.19
2022-11-08T09:46:49.327Z,100324.28
2022-11-08T09:49:22.689Z,100325.31
2022-11-08T09:51:51.205Z,100322.06
2022-11-08T09:54:24.951Z,100324.72
2022-11-08T09:56:55.657Z,100326.72
2022-11-08T09:59:38.807Z,100283.00
2022-11-08T10:02:17.210Z,100322.13
2022-11-08T10:04:50.455Z,100322.34
2022-11-08T10:07:30.373Z,100310.06
2022-11-08T10:10:34.024Z,100340.66
2022-11-08T10:13:09.661Z,100330.03
2022-11-08T10:15:46.422Z,100327.97
2022-11-08T10:18:44.124Z,100315.63
2022-11-08T10:21:21.026Z,100325.31
2022-11-08T10:23:58.297Z,100315.84
2022-11-08T10:26:34.918Z,100317.72
2022-11-08T10:29:09.874Z,100312.81
2022-11-08T10:31:41.740Z,100317.47
2022-11-08T10:34:16.240Z,100307.56
2022-11-08T10:36:47.931Z,100326.91
2022-11-08T10:39:21.491Z,100335.63
2022-11-08T10:41:55.402Z,100312.72
2022-11-08T10:44:25.663Z,100331.56
2022-11-08T10:47:01.462Z,100326.91
2022-11-08T10:49:32.736Z,100330.19
2022-11-08T10:52:02.870Z,100333.44
2022-11-08T10:54:48.974Z,100330.91
2022-11-08T10:57:18.891Z,100320.41
2022-11-08T10:59:47.044Z,100302.00
2022-11-08T11:02:25.144Z,100333.78
2022-11-08T11:05:14.028Z,100313.38
2022-11-08T11:07:42.454Z,100330.28
2022-11-08T11:10:23.932Z,100342.50
2022-11-08T11:12:52.803Z,100341.44
2022-11-08T11:15:20.694Z,100344.84
2022-11-08T11:17:48.839Z,100356.03
2022-11-08T11:20:26.196Z,100347.78
2022-11-08T11:22:54.567Z,100359.13
2022-11-08T11:25:24.612Z,100351.06
2022-11-08T11:27:56.421Z,100322.75
2022-11-08T11:30:30.641Z,100350.28
2022-11-08T11:33:02.396Z,100345.22
2022-11-08T11:35:39.746Z,100349.66
2022-11-08T11:38:23.826Z,100327.72
2022-11-08T11:40:54.384Z,100350.63
2022-11-08T11:43:29.084Z,100343.72
2022-11-08T11:46:02.451Z,100351.63
2022-11-08T11:48:32.319Z,100313.91
2022-11-08T11:51:03.350Z,100353.38
2022-11-08T11:53:38.775Z,100356.69
2022-11-08T11:56:37.823Z,100359.22
2022-11-08T11:59:30.918Z,100349.75
2022-11-08T12:02:24.369Z,100343.06
2022-11-08T12:05:14.874Z,100346.53
2022-11-08T12:07:47.870Z,100349.13
2022-11-08T12:10:24.591Z,100341.31
2022-11-08T12:13:02.032Z,100345.88
2022-11-08T12:15:35.576Z,100343.22
2022-11-08T12:18:41.545Z,100344.00
2022-11-08T12:21:15.265Z,100344.19
2022-11-08T12:24:01.896Z,100338.34
2022-11-08T12:26:38.511Z,100343.88
2022-11-08T12:29:23.900Z,100345.84
2022-11-08T12:32:05.727Z,100347.03
2022-11-08T12:34:45.200Z,100351.34
2022-11-08T12:37:23.262Z,100330.09
2022-11-08T12:40:00.676Z,100346.88
2022-11-08T12:42:44.901Z,100343.16
2022-11-08T12:45:43.507Z,100346.03
2022-11-08T12:48:23.647Z,100325.91
2022-11-08T12:51:01.517Z,100338.59
2022-11-08T12:53:54.906Z,100338.78
2022-11-08T12:56:28.721Z,100338.00
2022-11-08T12:58:57.769Z,100330.09
2022-11-08T13:01:25.830Z,100350.34
2022-11-08T13:04:06.540Z,100340.47
2022-11-08T13:06:44.329Z,100319.22
2022-11-08T13:09:20.975Z,100331.53
2022-11-08T13:11:57.712Z,100340.34
2022-11-08T13:14:26.498Z,100322.59
2022-11-08T13:17:22.596Z,100338.69
2022-11-08T13:20:04.418Z,100332.66
2022-11-08T13:22:58.732Z,100303.38
2022-11-08T13:25:37.726Z,100317.59
2022-11-08T13:28:38.778Z,100342.31
2022-11-08T13:31:17.292Z,100336.16
2022-11-08T13:33:56.119Z,100333.53
2022-11-08T13:36:36.740Z,100340.47
2022-11-08T13:39:22.867Z,100327.97
2022-11-08T13:42:06.909Z,100334.09
2022-11-08T13:44:59.174Z,100343.56
2022-11-08T13:47:56.754Z,100331.31
2022-11-08T13:50:50.919Z,100333.88
2022-11-08T13:53:49.860Z,100326.88
2022-11-08T13:56:40.713Z,100329.38
2022-11-08T13:59:50.976Z,100326.72
2022-11-08T14:02:39.899Z,100324.16
2022-11-08T14:05:29.310Z,100324.06
2022-11-08T14:08:14.550Z,100324.09
2022-11-08T14:10:59.391Z,100320.56
2022-11-08T14:13:35.309Z,100263.81
2022-11-08T14:16:07.802Z,100301.88
2022-11-08T14:18:39.268Z,100321.50
2022-11-08T14:21:08.816Z,100318.00
2022-11-08T14:23:40.366Z,100324.00
2022-11-08T14:26:13.530Z,100313.22
2022-11-08T14:28:43.904Z,100308.75
2022-11-08T14:31:25.593Z,100322.91
2022-11-08T14:33:55.837Z,100326.28
2022-11-08T14:36:26.496Z,100316.69
2022-11-08T14:39:03.951Z,100313.94
2022-11-08T14:41:34.305Z,100314.91
2022-11-08T14:44:03.822Z,100314.06
2022-11-08T14:46:34.002Z,100279.28
2022-11-08T14:49:12.432Z,100308.78
2022-11-08T14:51:40.742Z,100315.78
2022-11-08T14:54:17.607Z,100289.28
2022-11-08T14:56:46.155Z,100308.63
2022-11-08T14:59:14.896Z,100315.66
2022-11-08T15:01:48.870Z,100308.72
2022-11-08T15:04:20.723Z,100300.00
2022-11-08T15:06:53.116Z,100296.50
2022-11-08T15:09:26.332Z,100275.94
2022-11-08T15:11:57.974Z,100306.16
2022-11-08T15:14:28.455Z,100314.03
2022-11-08T15:17:02.763Z,100306.19
2022-11-08T15:19:39.278Z,100295.59
2022-11-08T15:22:26.678Z,100300.88
2022-11-08T15:25:02.578Z,100284.13
2022-11-08T15:27:30.700Z,100302.66
2022-11-08T15:30:04.501Z,100300.91
2022-11-08T15:32:38.131Z,100300.91
2022-11-08T15:35:18.930Z,100283.22
2022-11-08T15:37:49.368Z,100283.38
2022-11-08T15:40:20.315Z,100287.81
2022-11-08T15:42:49.922Z,100263.97
2022-11-08T15:45:26.925Z,100272.09
2022-11-08T15:48:01.084Z,100274.78
2022-11-08T15:50:31.731Z,100274.84
2022-11-08T15:53:01.223Z,100276.56
2022-11-08T15:55:32.394Z,100272.22
2022-11-08T15:58:00.689Z,100270.47
2022-11-08T16:00:31.712Z,100268.66
2022-11-08T16:02:59.974Z,100232.38
2022-11-08T16:05:31.922Z,100212.13
2022-11-08T16:08:00.571Z,100243.16
2022-11-08T16:10:32.687Z,100241.53
2022-11-08T16:13:01.572Z,100228.13
2022-11-08T16:15:32.298Z,100254.81
2022-11-08T16:18:00.729Z,100247.88
2022-11-08T16:20:31.893Z,100247.00
2022-11-08T16:23:01.784Z,100236.53
2022-11-08T16:25:32.406Z,100226.78
2022-11-08T16:28:08.368Z,100241.75
2022-11-08T16:30:36.911Z,100239.06
2022-11-08T16:33:19.955Z,100244.25
2022-11-08T16:35:49.851Z,100236.41
2022-11-08T16:38:30.932Z,100231.19
2022-11-08T16:40:59.219Z,100239.03
2022-11-08T16:43:27.142Z,100236.38
2022-11-08T16:46:10.946Z,100229.25
2022-11-08T16:48:40.762Z,100215.75
2022-11-08T16:51:19.392Z,100225.03
2022-11-08T16:53:48.509Z,100214.31
2022-11-08T16:56:17.053Z,100224.16
2022-11-08T16:58:45.499Z,100215.19
2022-11-08T17:01:16.025Z,100224.94
2022-11-08T17:03:44.052Z,100222.31
2022-11-08T17:06:18.337Z,100218.81
2022-11-08T17:08:46.809Z,100218.81
2022-11-08T17:11:18.064Z,100179.97
2022-11-08T17:13:46.023Z,100209.09
2022-11-08T17:16:15.408Z,100205.63
2022-11-08T17:18:43.599Z,100216.19
2022-11-08T17:21:43.163Z,100216.31
2022-11-08T17:24:04.227Z,100210.25
2022-11-08T17:26:32.285Z,100207.63
2022-11-08T17:29:00.135Z,100212.91
2022-11-08T17:31:28.255Z,100212.91
2022-11-08T17:33:56.393Z,100194.44
2022-11-08T17:36:25.696Z,100200.72
2022-11-08T17:38:53.882Z,100199.00
2022-11-08T17:41:22.203Z,100198.13
2022-11-08T17:43:50.791Z,100206.00
2022-11-08T17:46:18.789Z,100206.88
2022-11-08T17:48:46.825Z,100206.06
2022-11-08T17:51:15.725Z,100167.22
2022-11-08T17:53:45.140Z,100203.59
2022-11-08T17:56:13.476Z,100188.72
2022-11-08T17:58:42.039Z,100177.31
2022-11-08T18:01:10.404Z,100188.06
2022-11-08T18:03:38.475Z,100192.50
2022-11-08T18:06:09.835Z,100189.91
2022-11-08T18:08:37.811Z,100176.88
2022-11-08T18:11:07.790Z,100178.72
2022-11-08T18:13:36.556Z,100172.66
2022-11-08T18:16:09.924Z,100182.38
2022-11-08T18:18:38.071Z,100178.09
2022-11-08T18:21:06.571Z,100174.66
2022-11-08T18:23:34.789Z,100177.31
2022-11-08T18:26:03.211Z,100179.13
2022-11-08T18:28:33.120Z,100165.19
2022-11-08T18:31:08.043Z,100171.47
2022-11-08T18:33:37.429Z,100155.69
2022-11-08T18:36:06.950Z,100163.75
2022-11-08T18:38:39.194Z,100171.69
2022-11-08T18:41:07.616Z,100155.16
2022-11-08T18:43:37.664Z,100159.75
2022-11-08T18:46:07.661Z,100165.06
2022-11-08T18:48:36.513Z,100120.13
2022-11-08T18:51:04.835Z,100159.09
2022-11-08T18:53:33.076Z,100160.06
2022-11-08T18:56:01.502Z,100155.72
2022-11-08T18:58:29.689Z,100164.59
2022-11-08T19:00:59.557Z,100162.91
2022-11-08T19:03:28.565Z,100141.88
2022-11-08T19:05:56.584Z,100129.56
2022-11-08T19:08:27.163Z,100155.06
2022-11-08T19:10:56.758Z,100166.63
2022-11-08T19:13:26.711Z,100156.06
2022-11-08T19:16:00.657Z,100144.59
2022-11-08T19:18:29.692Z,100167.63
2022-11-08T19:20:58.605Z,100150.16
2022-11-08T19:23:27.015Z,100154.50
2022-11-08T19:25:56.420Z,100165.13
2022-11-08T19:28:27.064Z,100151.06
2022-11-08T19:31:00.034Z,100159.06
2022-11-08T19:33:29.852Z,100162.59
2022-11-08T19:36:02.797Z,100162.66
2022-11-08T19:38:32.353Z,100159.19
2022-11-08T19:41:02.570Z,100157.50
2022-11-08T19:43:31.210Z,100156.69
2022-11-08T19:46:03.868Z,100150.41
2022-11-08T19:48:32.824Z,100151.41
2022-11-08T19:51:02.795Z,100148.84
2022-11-08T19:53:30.911Z,100151.53
2022-11-08T19:56:02.367Z,100162.16
2022-11-08T19:58:30.290Z,100156.06
2022-11-08T20:00:58.275Z,100160.50
2022-11-08T20:03:27.694Z,100162.28
2022-11-08T20:05:55.840Z,100164.94
2022-11-08T20:08:23.754Z,100162.38
2022-11-08T20:10:51.957Z,100120.19
2022-11-08T20:13:20.003Z,100140.56
2022-11-08T20:15:48.110Z,100155.50
2022-11-08T20:18:16.743Z,100154.69
2022-11-08T20:20:46.270Z,100123.84
2022-11-08T20:23:17.376Z,100140.59
2022-11-08T20:25:45.445Z,100154.66
2022-11-08T20:28:13.328Z,100152.09
2022-11-08T20:30:41.625Z,100149.47
2022-11-08T20:33:09.623Z,100070.88
2022-11-08T20:35:38.708Z,100152.13
2022-11-08T20:38:08.015Z,100149.59
2022-11-08T20:40:38.495Z,100150.47
2022-11-08T20:43:06.473Z,100157.50
2022-11-08T20:45:34.581Z,100153.16
2022-11-08T20:48:03.010Z,100154.03
2022-11-08T20:50:31.033Z,100153.19
2022-11-08T20:52:58.954Z,100148.81
2022-11-08T20:55:29.492Z,100052.63
2022-11-08T20:57:57.736Z,100147.13
2022-11-08T21:00:52.119Z,100148.91
2022-11-08T21:03:18.777Z,100145.44
2022-11-08T21:05:52.163Z,100130.56
2022-11-08T21:11:12.431Z,100108.75
2022-11-08T21:13:42.927Z,100125.44
2022-11-08T21:16:28.821Z,100134.22
2022-11-08T21:18:58.663Z,100090.13
2022-11-08T21:21:27.237Z,100092.88
2022-11-08T21:23:55.524Z,100128.22
2022-11-08T21:26:25.242Z,100119.44
2022-11-08T21:28:53.310Z,100121.22
2022-11-08T21:31:21.213Z,100117.78
2022-11-08T21:33:49.319Z,100102.00
2022-11-08T21:36:18.454Z,100117.00
2022-11-08T21:38:46.755Z,100109.09
2022-11-08T21:41:15.064Z,100109.19
2022-11-08T21:43:46.262Z,100098.69
2022-11-08T21:46:18.178Z,100071.28
2022-11-08T21:48:47.457Z,100093.47
2022-11-08T21:51:17.040Z,100003.56
2022-11-08T21:53:54.015Z,99981.47
2022-11-08T21:56:22.916Z,100097.00
2022-11-08T21:58:52.776Z,100082.94
2022-11-08T22:01:24.296Z,100070.47
2022-11-08T22:03:55.478Z,100103.97
2022-11-08T22:06:24.240Z,100086.41
2022-11-08T22:08:52.134Z,100107.44
2022-11-08T22:11:23.087Z,100108.34
2022-11-08T22:13:52.826Z,100108.31
2022-11-08T22:16:20.810Z,100102.19
2022-11-08T22:19:09.408Z,100098.69
2022-11-08T22:21:44.574Z,100010.50
2022-11-08T22:24:17.391Z,100085.56
2022-11-08T22:26:46.583Z,100034.38
2022-11-08T22:29:17.607Z,100025.63
2022-11-08T22:31:47.836Z,100032.72
2022-11-08T22:34:16.154Z,100071.63
2022-11-08T22:36:48.305Z,100076.00
2022-11-08T22:39:17.700Z,99998.44
2022-11-08T22:41:49.533Z,100036.34
2022-11-08T22:44:20.194Z,100063.78
2022-11-08T22:46:50.723Z,100067.25
2022-11-08T22:49:21.561Z,100038.91
2022-11-08T22:51:49.437Z,100058.31
2022-11-08T22:54:20.318Z,100067.19
2022-11-08T22:56:49.673Z,100023.00
2022-11-08T22:59:20.169Z,100063.69
2022-11-08T23:01:51.158Z,100020.38
2022-11-08T23:04:22.166Z,100064.53
2022-11-08T23:06:53.372Z,100069.78
2022-11-08T23:09:21.397Z,100079.41
2022-11-08T23:12:06.864Z,100062.81
2022-11-08T23:14:54.510Z,100019.63
2022-11-08T23:17:25.330Z,100063.69
2022-11-08T23:20:10.830Z,100059.34
2022-11-08T23:22:58.964Z,100052.38
2022-11-08T23:25:26.980Z,100038.38
2022-11-08T23:28:13.038Z,100045.38
2022-11-08T23:31:02.772Z,100054.16
2022-11-08T23:33:32.361Z,100054.16
2022-11-08T23:36:12.403Z,100060.28
2022-11-08T23:38:41.495Z,100065.50
2022-11-08T23:41:27.427Z,100069.03
2022-11-08T23:44:13.047Z,100071.63
2022-11-08T23:46:45.593Z,100064.69
2022-11-08T23:49:13.593Z,100042.66
2022-11-08T23:51:45.471Z,100062.13
2022-11-08T23:54:16.702Z,100028.53
2022-11-08T23:56:45.667Z,100049.88
2022-11-08T23:59:14.240Z,100048.13
